Time;durP1;ratioP1;P1;durP2;ratioP2;P2;SDS_P1;SDS_P2;PMS_P1;PMS_P2;Temp;Humidity;BMP_temperature;BMP_pressure;BME280_temperature;BME280_humidity;BME280_pressure;Samples;Min_cycle;Max_cycle;Signal;HPM_P1;HPM_P2
2022/12/28 00:01:21;;;;;;;25.63;12.70;;;5.30;81.20;;;;;;4150963;28;20780;-87
2022/12/28 00:03:41;;;;;;;25.73;13.07;;;5.30;81.20;;;;;;4155266;28;20093;-87
2022/12/28 00:06:02;;;;;;;25.35;12.50;;;5.30;81.30;;;;;;4156561;28;20039;-86
2022/12/28 00:08:22;;;;;;;26.02;12.23;;;5.30;81.20;;;;;;4138809;28;20040;-88
2022/12/28 00:10:41;;;;;;;26.50;12.55;;;5.40;81.30;;;;;;4138834;28;20509;-89
2022/12/28 00:13:01;;;;;;;23.60;11.77;;;5.30;81.30;;;;;;4155104;28;20410;-90
2022/12/28 00:15:23;;;;;;;25.50;11.90;;;5.30;81.30;;;;;;4143112;28;20613;-89
2022/12/28 00:17:43;;;;;;;20.35;11.00;;;5.30;81.30;;;;;;4147147;28;20095;-88
2022/12/28 00:20:02;;;;;;;26.60;12.43;;;5.20;81.30;;;;;;4153028;28;20052;-89
2022/12/28 00:22:22;;;;;;;23.60;11.05;;;5.30;81.40;;;;;;4154755;28;20044;-89
2022/12/28 00:24:41;;;;;;;24.48;10.65;;;5.30;81.30;;;;;;4143141;28;20857;-90
2022/12/28 00:27:00;;;;;;;24.17;10.23;;;5.30;81.40;;;;;;4144776;28;20066;-87
2022/12/28 00:29:19;;;;;;;23.73;9.85;;;5.40;81.50;;;;;;4159234;28;20040;-90
2022/12/28 00:31:39;;;;;;;26.17;11.18;;;5.40;81.40;;;;;;4145357;28;20561;-90
2022/12/28 00:34:01;;;;;;;19.38;9.90;;;5.40;81.50;;;;;;4152485;28;20124;-90
2022/12/28 00:36:20;;;;;;;25.55;10.43;;;5.50;81.60;;;;;;4141321;28;20064;-89
2022/12/28 00:38:39;;;;;;;17.52;9.90;;;5.40;81.50;;;;;;4147396;28;20037;-88
2022/12/28 00:40:59;;;;;;;21.25;8.93;;;5.40;81.40;;;;;;4138097;28;20403;-87
2022/12/28 00:43:21;;;;;;;20.08;9.90;;;5.40;81.50;;;;;;4151602;28;20109;-90
2022/12/28 00:45:48;;;;;;;24.98;10.20;;;5.50;81.60;;;;;;4157731;28;20129;-89
2022/12/28 00:48:07;;;;;;;23.00;9.02;;;5.40;81.50;;;;;;4153704;28;20040;-90
2022/12/28 00:50:29;;;;;;;19.33;9.27;;;5.40;81.50;;;;;;4143212;28;20095;-87
2022/12/28 00:52:48;;;;;;;19.33;9.07;;;5.40;81.50;;;;;;4146389;28;20053;-90
2022/12/28 00:55:08;;;;;;;20.02;8.20;;;5.50;81.60;;;;;;4156137;28;20051;-86
2022/12/28 00:57:27;;;;;;;21.15;9.13;;;5.40;81.40;;;;;;4150979;28;20096;-88
2022/12/28 00:59:49;;;;;;;21.42;9.00;;;5.50;81.50;;;;;;4164696;28;20072;-89
2022/12/28 01:02:09;;;;;;;21.58;8.23;;;5.50;81.50;;;;;;4145868;28;20092;-89
2022/12/28 01:04:29;;;;;;;23.77;8.18;;;5.40;81.50;;;;;;4172349;28;20032;-89
2022/12/28 01:06:48;;;;;;;13.95;7.30;;;5.50;81.60;;;;;;4142754;28;20064;-89
2022/12/28 01:09:07;;;;;;;19.65;7.75;;;5.50;81.60;;;;;;4152999;28;20516;-90
2022/12/28 01:11:28;;;;;;;26.30;8.52;;;5.50;81.60;;;;;;4151329;28;20127;-90
2022/12/28 01:13:49;;;;;;;16.60;7.70;;;5.50;81.50;;;;;;4157445;28;20043;-89
2022/12/28 01:16:21;;;;;;;19.55;7.20;;;5.40;81.60;;;;;;4152004;28;20509;-88
2022/12/28 01:18:45;;;;;;;20.67;7.43;;;5.50;81.60;;;;;;4149413;28;20045;-87
2022/12/28 01:21:18;;;;;;;15.85;7.45;;;5.50;81.60;;;;;;4136080;28;20044;-89
2022/12/28 01:23:38;;;;;;;18.92;7.38;;;5.50;81.60;;;;;;4152188;28;20036;-88
2022/12/28 01:26:01;;;;;;;14.95;6.70;;;5.50;81.50;;;;;;4153625;28;20405;-88
2022/12/28 01:28:20;;;;;;;24.60;8.38;;;5.60;81.60;;;;;;4153762;28;20145;-90
2022/12/28 01:30:39;;;;;;;16.77;6.68;;;5.50;81.60;;;;;;4153499;28;20037;-88
2022/12/28 01:32:59;;;;;;;14.23;6.15;;;5.60;81.60;;;;;;4149333;28;20037;-87
2022/12/28 01:35:18;;;;;;;13.70;6.15;;;5.50;81.50;;;;;;4154679;28;20556;-88
2022/12/28 01:37:37;;;;;;;21.40;6.85;;;5.50;81.50;;;;;;4142995;28;20113;-88
2022/12/28 01:39:56;;;;;;;13.90;6.25;;;5.50;81.60;;;;;;4153213;28;20049;-87
2022/12/28 01:42:18;;;;;;;14.02;6.10;;;5.50;81.70;;;;;;4139844;28;20046;-87
2022/12/28 01:44:41;;;;;;;15.45;5.93;;;5.50;81.60;;;;;;4137239;28;20093;-88
2022/12/28 01:47:04;;;;;;;13.32;6.40;;;5.50;81.60;;;;;;4148973;28;20048;-89
2022/12/28 01:49:34;;;;;;;13.45;5.55;;;5.60;81.70;;;;;;4150980;28;20044;-87
2022/12/28 01:52:32;;;;;;;12.30;5.68;;;5.50;81.60;;;;;;4122204;28;20100;-89
2022/12/28 01:54:56;;;;;;;16.23;5.72;;;5.50;81.60;;;;;;4127501;28;20513;-89
2022/12/28 01:57:17;;;;;;;;;;;5.50;81.40;;;;;;4155716;28;20095;-88
2022/12/28 01:59:41;;;;;;;15.45;5.72;;;5.50;81.70;;;;;;4134969;28;19925;-88
2022/12/28 02:02:00;;;;;;;8.52;4.70;;;5.50;81.30;;;;;;4132616;28;20149;-89
2022/12/28 02:04:19;;;;;;;11.13;5.07;;;5.50;81.30;;;;;;4137323;28;20045;-88
2022/12/28 02:06:39;;;;;;;16.15;4.97;;;5.50;81.20;;;;;;4132458;28;20046;-88
2022/12/28 02:09:01;;;;;;;11.02;4.68;;;5.50;81.40;;;;;;4135037;28;20119;-87
2022/12/28 02:11:21;;;;;;;11.27;4.50;;;5.50;81.20;;;;;;4146666;28;20036;-89
2022/12/28 02:13:43;;;;;;;13.48;4.18;;;5.50;81.20;;;;;;4135737;28;20098;-88
2022/12/28 02:16:04;;;;;;;11.50;3.97;;;5.50;81.20;;;;;;4153385;28;20056;-88
2022/12/28 02:18:24;;;;;;;7.63;3.40;;;5.50;81.20;;;;;;4151432;28;20829;-88
2022/12/28 02:21:08;;;;;;;11.40;3.30;;;5.50;81.20;;;;;;4131057;28;20167;-86
2022/12/28 02:23:30;;;;;;;7.95;2.88;;;5.50;81.00;;;;;;4162695;28;20051;-86
2022/12/28 02:26:26;;;;;;;10.52;2.72;;;5.40;81.00;;;;;;4163704;28;20162;-87
2022/12/28 02:28:56;;;;;;;6.38;2.70;;;5.40;81.00;;;;;;4132151;28;20042;-87
2022/12/28 02:31:27;;;;;;;7.78;2.83;;;5.50;81.00;;;;;;4158541;28;20013;-86
2022/12/28 02:34:08;;;;;;;10.73;3.13;;;5.40;80.70;;;;;;4152654;28;20052;-86
2022/12/28 02:36:36;;;;;;;10.05;2.80;;;5.40;80.70;;;;;;4160856;28;20120;-88
2022/12/28 02:39:03;;;;;;;7.80;3.05;;;5.40;80.70;;;;;;4156093;28;20052;-89
2022/12/28 02:41:25;;;;;;;14.27;3.55;;;5.40;80.70;;;;;;4154211;28;20157;-87
2022/12/28 02:43:44;;;;;;;12.98;2.72;;;5.40;80.60;;;;;;4154090;28;20041;-89
2022/12/28 02:51:51;;;;;;;7.97;2.70;;;5.30;80.40;;;;;;4152782;28;20543;-89
2022/12/28 02:57:43;;;;;;;5.85;2.00;;;5.30;80.30;;;;;;4151017;28;20048;-87
2022/12/28 03:00:13;;;;;;;5.57;2.08;;;5.30;80.30;;;;;;4160098;28;20087;-89
2022/12/28 03:02:51;;;;;;;4.90;1.95;;;5.20;80.30;;;;;;4143348;28;20089;-89
2022/12/28 03:08:13;;;;;;;7.57;2.45;;;5.30;80.40;;;;;;4151325;28;20035;-87
2022/12/28 03:08:18;;;;;;;10.13;2.60;;;5.30;80.40;;;;;;4144417;28;20053;-87
2022/12/28 03:10:50;;;;;;;7.50;2.20;;;5.30;80.40;;;;;;4147529;28;20132;-89
2022/12/28 03:16:04;;;;;;;9.30;2.65;;;5.30;80.40;;;;;;4149724;28;20056;-88
2022/12/28 03:31:53;;;;;;;8.63;2.40;;;5.20;80.30;;;;;;4153216;28;20075;-89
2022/12/28 03:34:13;;;;;;;7.32;2.50;;;5.10;80.20;;;;;;4146700;28;20036;-88
2022/12/28 03:36:49;;;;;;;8.23;2.30;;;5.10;80.20;;;;;;4138088;28;20041;-88
2022/12/28 03:39:29;;;;;;;6.60;2.22;;;5.10;80.30;;;;;;4141663;28;20064;-89
2022/12/28 03:45:01;;;;;;;7.80;2.30;;;5.10;80.40;;;;;;4147818;28;20571;-87
2022/12/28 03:47:24;;;;;;;5.78;2.38;;;5.10;80.40;;;;;;4148691;28;20045;-87
2022/12/28 03:49:44;;;;;;;7.47;2.90;;;5.10;80.30;;;;;;4136205;28;20044;-88
2022/12/28 03:52:04;;;;;;;6.72;2.70;;;5.10;80.40;;;;;;4136722;28;20065;-86
2022/12/28 03:54:23;;;;;;;8.15;2.75;;;5.10;80.50;;;;;;4152703;28;20208;-86
2022/12/28 03:56:49;;;;;;;9.82;2.58;;;5.10;80.50;;;;;;4162957;28;20093;-88
2022/12/28 03:59:08;;;;;;;5.13;2.78;;;5.20;80.60;;;;;;4166980;28;20037;-85
2022/12/28 04:01:27;;;;;;;5.53;2.90;;;5.10;80.50;;;;;;4153109;28;20041;-86
2022/12/28 04:03:46;;;;;;;10.02;3.00;;;5.10;80.60;;;;;;4151501;28;20532;-87
2022/12/28 04:06:07;;;;;;;7.13;2.63;;;5.10;80.60;;;;;;4149270;28;21604;-86
2022/12/28 04:08:26;;;;;;;7.38;2.70;;;5.10;80.60;;;;;;4136055;28;20063;-87
2022/12/28 04:10:46;;;;;;;7.72;2.40;;;5.10;80.60;;;;;;4142566;28;20425;-88
2022/12/28 04:13:05;;;;;;;5.65;2.40;;;5.10;80.70;;;;;;4174095;28;20103;-89
2022/12/28 04:15:24;;;;;;;6.60;2.95;;;5.10;80.70;;;;;;4152328;28;20083;-88
2022/12/28 04:17:43;;;;;;;5.05;2.45;;;5.10;80.70;;;;;;4148320;28;20069;-89
2022/12/28 04:20:03;;;;;;;5.65;2.53;;;5.10;80.70;;;;;;4138675;28;20243;-87
2022/12/28 04:22:23;;;;;;;8.75;2.42;;;5.10;80.70;;;;;;4133442;28;20164;-89
2022/12/28 04:24:42;;;;;;;11.68;3.17;;;5.10;80.70;;;;;;4161552;28;20086;-89
2022/12/28 04:27:01;;;;;;;14.50;3.70;;;5.10;80.80;;;;;;4134007;28;20091;-87
2022/12/28 04:29:20;;;;;;;8.15;2.60;;;5.10;80.80;;;;;;4160899;28;20050;-85
2022/12/28 04:31:39;;;;;;;6.03;2.20;;;5.10;80.80;;;;;;4148469;28;20082;-86
2022/12/28 04:33:58;;;;;;;5.15;2.40;;;5.10;80.80;;;;;;4136959;28;20048;-88
2022/12/28 04:36:18;;;;;;;7.15;2.50;;;5.10;80.80;;;;;;4135224;28;20045;-88
2022/12/28 04:38:37;;;;;;;8.35;2.70;;;5.10;80.80;;;;;;4138288;28;20048;-87
2022/12/28 04:40:56;;;;;;;9.80;2.70;;;5.10;80.90;;;;;;4141106;28;20119;-87
2022/12/28 04:43:15;;;;;;;5.88;2.13;;;5.20;81.00;;;;;;4146267;28;20133;-86
2022/12/28 04:45:35;;;;;;;6.05;2.65;;;5.10;80.90;;;;;;4154699;28;20035;-88
2022/12/28 04:47:58;;;;;;;6.50;2.47;;;5.10;81.00;;;;;;4138425;28;20051;-88
2022/12/28 04:50:17;;;;;;;5.28;2.38;;;5.10;81.00;;;;;;4133326;28;20072;-87
2022/12/28 04:52:36;;;;;;;5.28;2.28;;;5.10;81.00;;;;;;4143454;28;20107;-87
2022/12/28 04:54:55;;;;;;;5.85;2.35;;;5.10;81.00;;;;;;4137537;28;20085;-88
2022/12/28 04:57:14;;;;;;;6.82;2.97;;;5.10;81.00;;;;;;4147027;28;20077;-86
2022/12/28 04:59:33;;;;;;;6.03;3.15;;;5.10;81.10;;;;;;4134377;28;20069;-88
2022/12/28 05:01:52;;;;;;;8.50;2.70;;;5.10;81.10;;;;;;4143706;28;20283;-89
2022/12/28 05:04:11;;;;;;;6.50;3.10;;;5.10;81.00;;;;;;4139755;28;20082;-89
2022/12/28 05:06:30;;;;;;;6.68;3.25;;;5.10;81.00;;;;;;4150860;28;20508;-87
2022/12/28 05:08:50;;;;;;;9.60;3.00;;;5.10;81.00;;;;;;4136381;28;20048;-87
2022/12/28 05:11:20;;;;;;;7.10;2.80;;;5.10;81.00;;;;;;4134746;28;20072;-88
2022/12/28 05:13:39;;;;;;;8.77;3.10;;;5.10;81.00;;;;;;4133762;28;20052;-86
2022/12/28 05:16:03;;;;;;;6.55;3.33;;;5.10;81.00;;;;;;4150765;28;20478;-88
2022/12/28 05:18:23;;;;;;;8.73;3.20;;;5.10;81.00;;;;;;4135724;28;20049;-88
2022/12/28 05:20:42;;;;;;;7.85;2.90;;;5.10;81.00;;;;;;4135406;28;20484;-86
2022/12/28 05:23:01;;;;;;;7.38;3.28;;;5.10;81.00;;;;;;4151710;28;20090;-87
2022/12/28 05:25:20;;;;;;;5.55;2.10;;;5.10;81.10;;;;;;4135909;28;20041;-87
2022/12/28 05:27:39;;;;;;;5.63;2.28;;;5.30;81.90;;;;;;4154517;28;20084;-88
2022/12/28 05:29:58;;;;;;;4.82;2.20;;;5.20;81.20;;;;;;4140851;28;20506;-87
2022/12/28 05:32:17;;;;;;;5.68;2.28;;;5.20;81.30;;;;;;4148136;28;20041;-88
2022/12/28 05:34:36;;;;;;;7.90;2.47;;;5.10;81.30;;;;;;4160372;28;20071;-89
2022/12/28 05:36:55;;;;;;;7.40;2.13;;;5.10;81.40;;;;;;4138691;28;20182;-87
2022/12/28 05:39:14;;;;;;;4.22;2.00;;;5.10;81.40;;;;;;4136165;28;20965;-87
2022/12/28 05:41:34;;;;;;;2.72;1.60;;;5.20;81.40;;;;;;4166892;28;20064;-85
2022/12/28 05:43:55;;;;;;;5.05;1.92;;;5.20;81.40;;;;;;4154082;28;20044;-86
2022/12/28 05:46:18;;;;;;;4.40;1.88;;;5.10;81.60;;;;;;4135976;28;20120;-88
2022/12/28 05:48:39;;;;;;;7.10;1.92;;;5.10;81.60;;;;;;4147549;28;20771;-86
2022/12/28 05:51:07;;;;;;;4.28;1.80;;;5.20;81.70;;;;;;4142403;28;20032;-88
2022/12/28 05:53:27;;;;;;;3.67;1.60;;;5.20;81.60;;;;;;4142967;28;20041;-86
2022/12/28 05:55:46;;;;;;;3.63;1.42;;;5.20;81.60;;;;;;4152522;28;20052;-86
2022/12/28 05:58:07;;;;;;;4.20;1.50;;;5.20;81.70;;;;;;4138792;28;20129;-86
2022/12/28 06:00:26;;;;;;;2.78;1.58;;;5.20;81.60;;;;;;4137571;28;20588;-88
2022/12/28 06:02:45;;;;;;;7.10;1.80;;;5.30;81.70;;;;;;4153107;28;20067;-88
2022/12/28 06:05:05;;;;;;;4.10;1.77;;;5.40;81.80;;;;;;4161088;28;20088;-87
2022/12/28 06:07:24;;;;;;;2.85;1.23;;;5.20;81.70;;;;;;4160448;28;20052;-88
2022/12/28 06:09:43;;;;;;;4.90;1.60;;;5.20;81.80;;;;;;4136300;28;20044;-88
2022/12/28 06:12:03;;;;;;;2.58;1.83;;;5.20;81.90;;;;;;4138809;28;20537;-88
2022/12/28 06:14:22;;;;;;;4.88;1.70;;;5.20;82.10;;;;;;4137320;28;20072;-88
2022/12/28 06:16:42;;;;;;;2.92;1.50;;;5.20;82.00;;;;;;4138993;28;20101;-87
2022/12/28 06:19:06;;;;;;;3.58;1.98;;;5.20;82.00;;;;;;4139808;28;20097;-86
2022/12/28 06:21:28;;;;;;;5.82;1.80;;;5.20;82.20;;;;;;4137015;28;20106;-88
2022/12/28 06:23:49;;;;;;;3.35;1.67;;;5.20;82.30;;;;;;4138597;28;21011;-88
2022/12/28 06:26:10;;;;;;;4.57;1.88;;;5.30;82.30;;;;;;4138299;28;20041;-86
2022/12/28 06:28:30;;;;;;;6.75;2.00;;;5.30;82.20;;;;;;4149068;28;20033;-88
2022/12/28 06:30:49;;;;;;;3.72;1.60;;;5.30;82.30;;;;;;4147472;28;20094;-88
2022/12/28 06:33:08;;;;;;;5.47;2.00;;;5.30;82.30;;;;;;4150186;28;20096;-89
2022/12/28 06:35:27;;;;;;;2.85;1.85;;;5.30;82.40;;;;;;4151701;28;20111;-88
2022/12/28 06:37:47;;;;;;;4.18;2.67;;;5.40;82.60;;;;;;4153172;28;20537;-89
2022/12/28 06:40:06;;;;;;;2.72;1.80;;;5.30;82.70;;;;;;4135145;28;20188;-89
2022/12/28 06:42:26;;;;;;;4.25;1.70;;;5.30;82.70;;;;;;4160318;28;20044;-87
2022/12/28 06:44:45;;;;;;;4.88;2.03;;;5.40;82.80;;;;;;4134198;28;20041;-89
2022/12/28 06:47:04;;;;;;;5.22;1.80;;;5.30;82.70;;;;;;4143313;28;20076;-86
2022/12/28 06:49:23;;;;;;;3.55;1.88;;;5.40;82.90;;;;;;4152729;28;20080;-89
2022/12/28 06:51:42;;;;;;;4.38;2.00;;;5.40;82.90;;;;;;4143749;28;20040;-87
2022/12/28 06:54:01;;;;;;;6.38;1.95;;;5.40;83.00;;;;;;4137592;28;20044;-87
2022/12/28 06:56:27;;;;;;;3.28;1.67;;;5.40;83.00;;;;;;4135754;28;20770;-87
2022/12/28 06:58:48;;;;;;;2.25;1.33;;;5.40;83.00;;;;;;4150603;28;20084;-89
2022/12/28 07:01:10;;;;;;;3.90;1.65;;;5.40;83.20;;;;;;4131655;28;20529;-87
2022/12/28 07:03:30;;;;;;;3.03;2.00;;;5.50;83.20;;;;;;4135642;28;20068;-89
2022/12/28 07:05:49;;;;;;;1.83;1.45;;;5.50;83.40;;;;;;4139420;28;20101;-88
2022/12/28 07:08:09;;;;;;;5.25;1.98;;;5.50;83.20;;;;;;4149029;28;20100;-88
2022/12/28 07:10:28;;;;;;;3.33;1.90;;;5.60;83.20;;;;;;4148214;28;20103;-87
2022/12/28 07:12:47;;;;;;;4.10;1.98;;;5.60;83.40;;;;;;4141345;28;20460;-87
2022/12/28 07:15:07;;;;;;;3.45;1.67;;;5.50;83.30;;;;;;4151966;28;20111;-88
2022/12/28 07:17:26;;;;;;;3.67;1.75;;;5.60;83.30;;;;;;4134456;28;20053;-88
2022/12/28 07:19:45;;;;;;;2.30;1.60;;;5.60;83.40;;;;;;4142308;28;20041;-89
2022/12/28 07:22:04;;;;;;;2.05;1.52;;;5.60;83.50;;;;;;4135028;28;20702;-86
2022/12/28 07:24:23;;;;;;;3.50;1.70;;;5.60;83.40;;;;;;4149203;28;20123;-91
2022/12/28 07:26:42;;;;;;;3.03;1.73;;;5.60;83.40;;;;;;4137839;28;20655;-91
2022/12/28 07:29:12;;;;;;;2.75;1.88;;;5.70;83.60;;;;;;4137903;28;20044;-90
2022/12/28 07:31:35;;;;;;;3.67;1.88;;;5.70;83.60;;;;;;4140117;28;20067;-89
2022/12/28 07:33:56;;;;;;;2.65;1.77;;;5.70;83.60;;;;;;4147388;28;20094;-89
2022/12/28 07:36:18;;;;;;;2.88;1.58;;;5.80;83.70;;;;;;4141901;28;20049;-88
2022/12/28 07:38:37;;;;;;;2.42;1.60;;;5.70;83.70;;;;;;4149105;28;20572;-88
2022/12/28 07:41:02;;;;;;;4.47;1.52;;;5.80;83.80;;;;;;4144486;28;20045;-90
2022/12/28 07:43:21;;;;;;;3.40;1.70;;;5.80;83.90;;;;;;4146763;28;20049;-90
2022/12/28 07:45:40;;;;;;;4.75;1.50;;;5.90;84.80;;;;;;4142994;28;20103;-89
2022/12/28 07:47:59;;;;;;;2.67;1.40;;;5.80;84.00;;;;;;4135589;28;20042;-91
2022/12/28 07:50:18;;;;;;;2.78;1.38;;;5.90;84.00;;;;;;4123976;28;20089;-87
2022/12/28 07:52:37;;;;;;;3.05;1.50;;;5.90;84.10;;;;;;4134969;28;20040;-90
2022/12/28 07:54:57;;;;;;;4.88;1.95;;;5.90;84.00;;;;;;4153153;28;20139;-89
2022/12/28 07:57:16;;;;;;;1.70;1.35;;;6.00;84.10;;;;;;4157650;28;20099;-89
2022/12/28 07:59:35;;;;;;;4.22;1.63;;;6.00;84.80;;;;;;4145106;28;20072;-89
2022/12/28 08:01:54;;;;;;;1.65;1.30;;;6.00;84.20;;;;;;4140822;28;20117;-89
2022/12/28 08:04:14;;;;;;;2.90;1.20;;;6.10;84.20;;;;;;4145199;28;20056;-90
2022/12/28 08:06:36;;;;;;;1.65;1.23;;;6.00;84.10;;;;;;4146694;28;20072;-89
2022/12/28 08:08:59;;;;;;;1.77;1.20;;;6.10;84.20;;;;;;4131967;28;20108;-91
2022/12/28 08:11:22;;;;;;;1.20;1.03;;;6.10;84.20;;;;;;4145285;28;20219;-88
2022/12/28 08:13:44;;;;;;;3.28;1.30;;;6.10;84.20;;;;;;4148141;28;20091;-89
2022/12/28 08:16:06;;;;;;;2.50;1.40;;;6.10;84.10;;;;;;4146396;28;20058;-89
2022/12/28 08:18:26;;;;;;;1.85;1.10;;;6.10;84.00;;;;;;4136449;28;20069;-90
2022/12/28 08:20:45;;;;;;;3.42;1.05;;;6.10;84.00;;;;;;4148258;28;20698;-88
2022/12/28 08:23:04;;;;;;;2.95;1.20;;;6.20;84.10;;;;;;4144332;28;20043;-90
2022/12/28 08:25:23;;;;;;;2.53;1.15;;;6.10;84.00;;;;;;4126806;28;20150;-90
2022/12/28 08:27:43;;;;;;;2.17;1.08;;;6.20;84.00;;;;;;4139587;28;20223;-90
2022/12/28 08:30:03;;;;;;;3.25;1.50;;;6.20;84.00;;;;;;4136378;28;20612;-89
2022/12/28 08:32:22;;;;;;;4.30;1.30;;;6.20;84.10;;;;;;4145291;28;20045;-88
2022/12/28 08:34:42;;;;;;;2.30;1.30;;;6.20;84.00;;;;;;4147068;28;20106;-92
2022/12/28 08:37:01;;;;;;;2.58;1.23;;;6.30;84.20;;;;;;4159083;28;20084;-90
2022/12/28 08:39:19;;;;;;;2.17;1.38;;;6.30;84.20;;;;;;4154007;28;20037;-91
2022/12/28 08:41:38;;;;;;;3.83;1.83;;;6.40;84.20;;;;;;4140652;28;20713;-87
2022/12/28 08:43:58;;;;;;;2.13;1.40;;;6.30;84.80;;;;;;4152188;28;20049;-91
2022/12/28 08:46:20;;;;;;;4.43;1.45;;;6.30;84.90;;;;;;4139511;28;20132;-89
2022/12/28 08:48:40;;;;;;;3.85;1.67;;;6.30;84.20;;;;;;4151684;28;20558;-90
2022/12/28 08:51:05;;;;;;;3.28;1.70;;;6.30;84.20;;;;;;4139625;28;20044;-90
2022/12/28 08:53:24;;;;;;;2.40;1.30;;;6.30;84.20;;;;;;4153255;28;20060;-91
2022/12/28 08:55:44;;;;;;;2.03;1.48;;;6.50;84.30;;;;;;4148843;28;20410;-92
2022/12/28 08:58:03;;;;;;;3.00;1.63;;;6.30;84.30;;;;;;4132865;28;20037;-89
2022/12/28 09:00:22;;;;;;;3.78;1.73;;;6.30;84.30;;;;;;4133883;28;20362;-91
2022/12/28 09:02:41;;;;;;;5.68;2.05;;;6.40;84.30;;;;;;4128350;28;20469;-92
2022/12/28 09:05:00;;;;;;;7.50;2.47;;;6.40;84.40;;;;;;4148987;28;20045;-87
2022/12/28 09:07:45;;;;;;;3.17;1.50;;;6.40;84.30;;;;;;4150356;28;20080;-90
2022/12/28 09:10:07;;;;;;;4.40;1.80;;;6.40;84.40;;;;;;4139771;28;20048;-90
2022/12/28 09:12:27;;;;;;;3.15;1.55;;;6.40;84.40;;;;;;4160630;28;20044;-89
2022/12/28 09:14:52;;;;;;;2.95;1.40;;;6.40;84.40;;;;;;4153761;28;20829;-89
2022/12/28 09:17:15;;;;;;;3.58;1.50;;;6.40;84.30;;;;;;4143493;28;20045;-86
2022/12/28 09:19:34;;;;;;;3.40;1.85;;;6.50;84.50;;;;;;4163068;28;20080;-88
2022/12/28 09:21:54;;;;;;;3.03;2.05;;;6.40;84.30;;;;;;4161341;28;20100;-89
2022/12/28 09:24:14;;;;;;;5.72;2.42;;;6.50;84.40;;;;;;4140660;28;20048;-90
2022/12/28 09:26:37;;;;;;;7.13;2.28;;;6.50;84.40;;;;;;4155453;28;20105;-89
2022/12/28 09:29:01;;;;;;;7.03;1.80;;;6.60;84.50;;;;;;4153669;28;20072;-90
2022/12/28 09:31:26;;;;;;;3.70;1.85;;;6.70;84.60;;;;;;4145770;28;20060;-89
2022/12/28 09:34:00;;;;;;;5.65;2.13;;;6.60;84.50;;;;;;4143714;28;20093;-89
2022/12/28 09:36:23;;;;;;;;;;;6.60;84.50;;;;;;4148300;28;20042;-91
2022/12/28 09:38:42;;;;;;;6.38;2.35;;;6.70;85.00;;;;;;4142600;28;19916;-90
2022/12/28 09:41:31;;;;;;;3.30;2.03;;;6.70;84.80;;;;;;4156756;28;20038;-89
2022/12/28 09:44:05;;;;;;;9.35;2.35;;;6.60;84.60;;;;;;4104260;28;20085;-90
2022/12/28 09:46:25;;;;;;;6.00;2.88;;;6.70;84.60;;;;;;4140724;28;20133;-91
2022/12/28 09:48:51;;;;;;;5.22;2.03;;;6.70;84.80;;;;;;4136562;28;20801;-89
2022/12/28 09:51:11;;;;;;;7.03;2.28;;;6.70;84.60;;;;;;4145189;28;20036;-89
2022/12/28 09:53:33;;;;;;;7.35;2.53;;;6.80;84.70;;;;;;4147233;28;20044;-89
2022/12/28 09:55:58;;;;;;;6.82;3.10;;;6.80;84.80;;;;;;4152066;28;20044;-90
2022/12/28 09:58:19;;;;;;;11.77;3.03;;;6.80;84.80;;;;;;4135948;28;20040;-87
2022/12/28 10:00:47;;;;;;;5.38;2.70;;;6.80;84.90;;;;;;4159689;28;20068;-87
2022/12/28 10:03:16;;;;;;;7.30;2.42;;;6.80;84.90;;;;;;4149585;28;20103;-89
2022/12/28 10:05:36;;;;;;;7.63;3.10;;;6.80;85.50;;;;;;4160364;28;20078;-91
2022/12/28 10:07:58;;;;;;;10.73;3.85;;;6.80;84.80;;;;;;4131070;28;20068;-88
2022/12/28 10:10:20;;;;;;;14.63;3.47;;;7.00;85.00;;;;;;4139349;28;20052;-88
2022/12/28 10:12:42;;;;;;;6.75;3.10;;;7.00;84.80;;;;;;4141013;28;20072;-89
2022/12/28 10:15:05;;;;;;;9.50;2.80;;;7.00;85.00;;;;;;4150965;28;20153;-88
2022/12/28 10:17:29;;;;;;;14.25;3.97;;;7.00;84.80;;;;;;4136118;28;20098;-90
2022/12/28 10:19:49;;;;;;;7.38;2.90;;;7.10;85.00;;;;;;4131434;28;20041;-89
2022/12/28 10:22:17;;;;;;;10.50;3.90;;;7.00;85.50;;;;;;4148498;28;20168;-88
2022/12/28 10:24:38;;;;;;;9.68;3.35;;;7.00;84.80;;;;;;4136866;28;20033;-88
2022/12/28 10:27:01;;;;;;;17.95;3.80;;;7.10;84.80;;;;;;4143113;28;20083;-90
2022/12/28 10:29:23;;;;;;;14.15;4.22;;;7.20;84.90;;;;;;4125209;28;20396;-89
2022/12/28 10:31:45;;;;;;;11.23;3.13;;;7.10;84.80;;;;;;4131481;28;20083;-88
2022/12/28 10:34:16;;;;;;;14.73;3.90;;;7.10;84.80;;;;;;4129085;28;20720;-88
2022/12/28 10:36:36;;;;;;;12.27;3.17;;;7.20;84.80;;;;;;4130192;28;20072;-89
2022/12/28 10:38:55;;;;;;;15.20;3.65;;;7.20;84.70;;;;;;4136519;28;20414;-88
2022/12/28 10:41:16;;;;;;;10.77;3.10;;;7.20;84.70;;;;;;4129200;28;20087;-88
2022/12/28 10:43:39;;;;;;;9.07;3.30;;;7.20;84.60;;;;;;4131740;28;20068;-88
2022/12/28 10:46:00;;;;;;;12.00;2.97;;;7.20;84.60;;;;;;4124781;28;20049;-88
2022/12/28 10:48:32;;;;;;;12.25;3.80;;;7.40;84.70;;;;;;4126359;28;20033;-88
2022/12/28 10:50:54;;;;;;;10.98;2.92;;;7.30;84.60;;;;;;4123495;28;20065;-89
2022/12/28 10:53:26;;;;;;;14.82;3.15;;;7.30;84.50;;;;;;4131008;28;20048;-86
2022/12/28 10:55:45;;;;;;;15.40;3.42;;;7.30;84.60;;;;;;4152203;28;20180;-90
2022/12/28 10:58:22;;;;;;;17.17;3.95;;;7.30;84.50;;;;;;4133681;28;20073;-88
2022/12/28 11:00:41;;;;;;;14.45;3.10;;;7.30;84.60;;;;;;4138137;28;20355;-92
2022/12/28 11:03:17;;;;;;;11.55;3.17;;;7.40;84.70;;;;;;4144324;28;20107;-90
2022/12/28 11:05:36;;;;;;;12.60;3.03;;;7.40;85.10;;;;;;4143657;28;20045;-89
2022/12/28 11:08:13;;;;;;;11.27;2.72;;;7.40;84.70;;;;;;4146342;28;20044;-89
2022/12/28 11:10:36;;;;;;;13.93;2.60;;;7.40;84.70;;;;;;4135541;28;20044;-90
2022/12/28 11:12:59;;;;;;;13.93;2.83;;;7.50;84.70;;;;;;4155013;28;20060;-92
2022/12/28 11:15:51;;;;;;;21.13;2.80;;;7.50;84.70;;;;;;4136136;28;20738;-90
2022/12/28 11:18:18;;;;;;;13.13;2.40;;;7.50;84.80;;;;;;4138230;28;20148;-91
2022/12/28 11:20:58;;;;;;;12.70;3.17;;;7.50;84.60;;;;;;4150680;28;20104;-91
2022/12/28 11:23:23;;;;;;;13.73;2.40;;;7.60;84.60;;;;;;4160183;28;20414;-89
2022/12/28 11:25:43;;;;;;;13.98;2.40;;;7.70;84.80;;;;;;4148291;28;20703;-90
2022/12/28 11:28:12;;;;;;;16.05;3.05;;;7.60;84.70;;;;;;4124208;28;20037;-91
2022/12/28 11:30:35;;;;;;;13.65;2.67;;;7.70;84.70;;;;;;4137991;28;20036;-91
2022/12/28 11:33:00;;;;;;;15.20;2.42;;;7.60;84.80;;;;;;4146702;28;20057;-90
2022/12/28 11:35:23;;;;;;;20.10;2.72;;;7.70;84.70;;;;;;4138564;28;20044;-90
2022/12/28 11:37:55;;;;;;;16.63;3.13;;;7.70;84.60;;;;;;4148542;28;21000;-89
2022/12/28 11:40:43;;;;;;;17.35;2.38;;;7.70;84.50;;;;;;4129889;28;20072;-90
2022/12/28 11:43:05;;;;;;;18.35;2.10;;;7.80;84.40;;;;;;4144956;28;20077;-90
2022/12/28 11:45:50;;;;;;;15.98;2.10;;;7.80;84.30;;;;;;4146961;28;20045;-89
2022/12/28 11:48:38;;;;;;;16.75;2.13;;;7.80;84.10;;;;;;4142218;28;20092;-89
2022/12/28 11:51:03;;;;;;;15.25;2.20;;;7.80;84.00;;;;;;4175827;28;20048;-88
2022/12/28 11:53:32;;;;;;;19.65;2.72;;;7.80;83.90;;;;;;4161017;28;20021;-88
2022/12/28 11:56:09;;;;;;;16.95;2.35;;;7.80;83.90;;;;;;4140483;28;20083;-88
2022/12/28 11:58:39;;;;;;;17.30;2.20;;;7.70;83.70;;;;;;4129427;28;20095;-91
2022/12/28 12:01:01;;;;;;;10.65;1.73;;;7.80;83.70;;;;;;4155299;28;20043;-90
2022/12/28 12:03:55;;;;;;;20.15;2.40;;;7.80;83.70;;;;;;4143132;28;20368;-90
2022/12/28 12:06:15;;;;;;;15.70;3.08;;;7.80;83.60;;;;;;4144707;28;20052;-90
2022/12/28 12:08:40;;;;;;;18.80;2.50;;;7.90;83.60;;;;;;4133154;28;20542;-88
2022/12/28 12:11:47;;;;;;;12.88;1.90;;;7.90;83.60;;;;;;4134880;28;20080;-89
2022/12/28 12:14:09;;;;;;;18.73;2.17;;;7.80;83.40;;;;;;4149942;28;20048;-90
2022/12/28 12:16:45;;;;;;;23.75;2.50;;;7.90;83.40;;;;;;4155908;28;20036;-89
2022/12/28 12:19:07;;;;;;;16.40;1.90;;;7.90;83.30;;;;;;4148866;28;20409;-89
2022/12/28 12:21:32;;;;;;;25.60;2.72;;;7.90;83.20;;;;;;4137726;28;20164;-89
2022/12/28 12:24:31;;;;;;;19.20;2.25;;;8.00;83.30;;;;;;4156254;28;20064;-90
2022/12/28 12:26:57;;;;;;;20.17;2.25;;;7.90;83.10;;;;;;4155535;28;20052;-89
2022/12/28 12:30:00;;;;;;;22.42;2.92;;;7.90;83.00;;;;;;4142619;28;20081;-89
2022/12/28 12:32:37;;;;;;;16.48;2.42;;;7.90;83.00;;;;;;4135541;28;20057;-90
2022/12/28 12:35:04;;;;;;;15.02;2.03;;;8.00;83.10;;;;;;4155039;28;20519;-90
2022/12/28 12:37:51;;;;;;;14.00;2.25;;;7.90;83.00;;;;;;4143056;28;20037;-91
2022/12/28 12:40:42;;;;;;;12.57;1.75;;;8.00;82.80;;;;;;4160368;28;20118;-90
2022/12/28 12:43:53;;;;;;;;;;;;;;;;;;;;;
2022/12/28 12:47:02;;;;;;;11.23;1.98;;;8.00;82.90;;;;;;4150734;28;20076;-92
2022/12/28 12:49:35;;;;;;;11.63;1.85;;;8.00;82.80;;;;;;4128648;28;20068;-90
2022/12/28 12:52:36;;;;;;;18.48;2.38;;;8.00;82.60;;;;;;4147794;28;20041;-93
2022/12/28 12:55:21;;;;;;;13.38;2.00;;;8.00;82.40;;;;;;4153688;28;20166;-92
2022/12/28 12:57:53;;;;;;;15.35;2.20;;;8.10;82.60;;;;;;4137619;28;20044;-93
2022/12/28 13:00:21;;;;;;;15.32;2.33;;;8.00;82.40;;;;;;4152836;28;20037;-92
2022/12/28 13:03:06;;;;;;;19.85;3.08;;;8.00;82.20;;;;;;4132346;28;20053;-88
2022/12/28 13:05:28;;;;;;;17.65;2.17;;;8.00;82.10;;;;;;4155775;28;20780;-91